PWSweather.com
Personal Weather Stations
Station Observations
CW4114
Near Downtown, Rogers City, MI 49779

Near DowntownRogers City, MI 49779

Lat: 45.417443, Lon: -83.810642

Elevation: 605

Station Type: Davis Vantage Pro2 w/Solar

Latest ConditionsUpdated 3:55:30 PM EST Sunday, Jan 19, 2020
Currently Today's Max Today's Min Today's Average
Temperature 22.3°F-5.4°C 22.8°F-5.1°C 16.0°F-8.9°C 19.1°F-7.2°C
Dew Point 14.0°F-10.0°C 21.4°F-5.9°C 12.9°F-10.6°C 15.9°F-8.9°C
Winds 6.7 mph N10.8 kmh N 10.7 mph -17.2 kmh - - 5.5 mph 8.9 kmh
Wind Gusts 14.8 mph23.8 kmh 20.1 mph32.3 kmh - -
Humidity 70% 94% 70% 87%
Pressure 30.24 in1024.0 mb 30.24 in1024.0 mb 29.62 in1003.0 mb -
Hour Temp Dew Point Humidity Winds Wind Gusts Pressure Precip Precip Rate Daily Precip Total
03:55 PM 22.3°F-5.4°C 14.0°F-10.0°C 70% 6.7 mph N10.8 kmh N 14.8 mph23.8 kmh 30.24 in1024.0 mb 0.00 in0.0 mm 0.00 in0.0 mm 0.00 in0.0 mm
03:50 PM 22.3°F-5.4°C 14.0°F-10.0°C 70% 5.8 mph N9.3 kmh N 11.6 mph18.7 kmh 30.24 in1024.0 mb 0.00 in0.0 mm 0.00 in0.0 mm 0.00 in0.0 mm
03:45 PM 22.3°F-5.4°C 14.0°F-10.0°C 70% 6.0 mph NW9.7 kmh NW 13.9 mph22.4 kmh 30.24 in1024.0 mb 0.00 in0.0 mm 0.00 in0.0 mm 0.00 in0.0 mm
03:40 PM 22.3°F-5.4°C 14.4°F-9.8°C 71% 5.1 mph NW8.2 kmh NW 12.8 mph20.6 kmh 30.23 in1023.7 mb 0.00 in0.0 mm 0.00 in0.0 mm 0.00 in0.0 mm
03:35 PM 22.3°F-5.4°C 14.7°F-9.6°C 72% 4.7 mph NNW7.6 kmh NNW 11.6 mph18.7 kmh 30.23 in1023.7 mb 0.00 in0.0 mm 0.00 in0.0 mm 0.00 in0.0 mm
03:30 PM 22.3°F-5.4°C 14.9°F-9.5°C 73% 6.3 mph N10.1 kmh N 11.6 mph18.7 kmh 30.23 in1023.7 mb 0.00 in0.0 mm 0.00 in0.0 mm 0.00 in0.0 mm
03:25 PM 22.1°F-5.5°C 14.7°F-9.6°C 73% 6.0 mph NNW9.7 kmh NNW 9.6 mph15.4 kmh 30.22 in1023.4 mb 0.00 in0.0 mm 0.00 in0.0 mm 0.00 in0.0 mm
03:20 PM 21.9°F-5.6°C 14.9°F-9.5°C 74% 5.6 mph NW9.0 kmh NW 10.5 mph16.9 kmh 30.22 in1023.4 mb 0.00 in0.0 mm 0.00 in0.0 mm 0.00 in0.0 mm
03:15 PM 21.7°F-5.7°C 15.1°F-9.4°C 75% 5.6 mph N9.0 kmh N 11.6 mph18.7 kmh 30.22 in1023.4 mb 0.00 in0.0 mm 0.00 in0.0 mm 0.00 in0.0 mm
03:10 PM 21.6°F-5.8°C 14.9°F-9.5°C 75% 5.8 mph NNW9.3 kmh NNW 13.9 mph22.4 kmh 30.22 in1023.4 mb 0.00 in0.0 mm 0.00 in0.0 mm 0.00 in0.0 mm
03:05 PM 21.7°F-5.7°C 15.6°F-9.1°C 77% 4.7 mph NNW7.6 kmh NNW 10.5 mph16.9 kmh 30.21 in1023.0 mb 0.00 in0.0 mm 0.00 in0.0 mm 0.00 in0.0 mm
03:00 PM 21.6°F-5.8°C 15.4°F-9.2°C 77% 4.5 mph NW7.2 kmh NW 8.5 mph13.7 kmh 30.21 in1023.0 mb 0.00 in0.0 mm 0.00 in0.0 mm 0.00 in0.0 mm
02:55 PM 21.4°F-5.9°C 15.3°F-9.3°C 77% 3.8 mph 6.1 kmh 10.5 mph16.9 kmh 30.21 in1023.0 mb 0.00 in0.0 mm 0.00 in0.0 mm 0.00 in0.0 mm
02:50 PM 21.6°F-5.8°C 15.8°F-9.0°C 78% 4.3 mph N6.9 kmh N 10.5 mph16.9 kmh 30.21 in1023.0 mb 0.00 in0.0 mm 0.00 in0.0 mm 0.00 in0.0 mm
02:45 PM 21.6°F-5.8°C 15.4°F-9.2°C 77% 5.1 mph NNW8.2 kmh NNW 11.6 mph18.7 kmh 30.20 in1022.7 mb 0.00 in0.0 mm 0.00 in0.0 mm 0.00 in0.0 mm
02:40 PM 21.6°F-5.8°C 16.0°F-8.9°C 79% 5.4 mph NNW8.7 kmh NNW 11.6 mph18.7 kmh 30.20 in1022.7 mb 0.00 in0.0 mm 0.00 in0.0 mm 0.00 in0.0 mm
02:35 PM 21.6°F-5.8°C 16.0°F-8.9°C 79% 6.3 mph NNW10.1 kmh NNW 18.1 mph29.1 kmh 30.20 in1022.7 mb 0.00 in0.0 mm 0.00 in0.0 mm 0.00 in0.0 mm
02:30 PM 21.7°F-5.7°C 16.0°F-8.9°C 78% 5.4 mph WNW8.7 kmh WNW 10.5 mph16.9 kmh 30.20 in1022.7 mb 0.00 in0.0 mm 0.00 in0.0 mm 0.00 in0.0 mm
02:25 PM 21.6°F-5.8°C 15.8°F-9.0°C 78% 3.4 mph N5.5 kmh N 11.6 mph18.7 kmh 30.20 in1022.7 mb 0.00 in0.0 mm 0.00 in0.0 mm 0.00 in0.0 mm
02:20 PM 21.7°F-5.7°C 15.6°F-9.1°C 77% 3.6 mph NNE5.8 kmh NNE 11.6 mph18.7 kmh 30.19 in1022.4 mb 0.00 in0.0 mm 0.00 in0.0 mm 0.00 in0.0 mm
02:15 PM 21.6°F-5.8°C 15.4°F-9.2°C 77% 4.3 mph NE6.9 kmh NE 8.5 mph13.7 kmh 30.19 in1022.4 mb 0.00 in0.0 mm 0.00 in0.0 mm 0.00 in0.0 mm
02:10 PM 21.6°F-5.8°C 15.8°F-9.0°C 78% 3.6 mph N5.8 kmh N 11.6 mph18.7 kmh 30.19 in1022.4 mb 0.00 in0.0 mm 0.00 in0.0 mm 0.00 in0.0 mm
02:05 PM 21.6°F-5.8°C 15.4°F-9.2°C 77% 4.9 mph N7.9 kmh N 12.8 mph20.6 kmh 30.19 in1022.4 mb 0.00 in0.0 mm 0.00 in0.0 mm 0.00 in0.0 mm
02:00 PM 21.4°F-5.9°C 15.3°F-9.3°C 77% 4.5 mph N7.2 kmh N 12.8 mph20.6 kmh 30.19 in1022.4 mb 0.00 in0.0 mm 0.00 in0.0 mm 0.00 in0.0 mm
01:55 PM 21.6°F-5.8°C 15.8°F-9.0°C 78% 4.7 mph NW7.6 kmh NW 11.6 mph18.7 kmh 30.19 in1022.4 mb 0.00 in0.0 mm 0.00 in0.0 mm 0.00 in0.0 mm
01:50 PM 21.7°F-5.7°C 16.2°F-8.8°C 79% 5.4 mph NNE8.7 kmh NNE 9.6 mph15.4 kmh 30.18 in1022.0 mb 0.00 in0.0 mm 0.00 in0.0 mm 0.00 in0.0 mm
01:45 PM 21.7°F-5.7°C 16.2°F-8.8°C 79% 4.0 mph NW6.4 kmh NW 12.8 mph20.6 kmh 30.18 in1022.0 mb 0.00 in0.0 mm 0.00 in0.0 mm 0.00 in0.0 mm
01:40 PM 21.7°F-5.7°C 16.5°F-8.6°C 80% 3.8 mph NW6.1 kmh NW 8.5 mph13.7 kmh 30.18 in1022.0 mb 0.00 in0.0 mm 0.00 in0.0 mm 0.00 in0.0 mm
01:35 PM 21.7°F-5.7°C 16.9°F-8.4°C 81% 4.7 mph NW7.6 kmh NW 10.5 mph16.9 kmh 30.17 in1021.7 mb 0.00 in0.0 mm 0.00 in0.0 mm 0.00 in0.0 mm
01:30 PM 21.6°F-5.8°C 16.7°F-8.5°C 81% 4.0 mph NE6.4 kmh NE 9.6 mph15.4 kmh 30.17 in1021.7 mb 0.00 in0.0 mm 0.00 in0.0 mm 0.00 in0.0 mm
01:25 PM 21.4°F-5.9°C 16.7°F-8.5°C 82% 4.7 mph N7.6 kmh N 10.5 mph16.9 kmh 30.17 in1021.7 mb 0.00 in0.0 mm 0.00 in0.0 mm 0.00 in0.0 mm
01:20 PM 21.4°F-5.9°C 16.7°F-8.5°C 82% 5.6 mph N9.0 kmh N 12.8 mph20.6 kmh 30.17 in1021.7 mb 0.00 in0.0 mm 0.00 in0.0 mm 0.00 in0.0 mm
01:15 PM 21.2°F-6.0°C 16.5°F-8.6°C 82% 4.9 mph N7.9 kmh N 11.6 mph18.7 kmh 30.16 in1021.3 mb 0.00 in0.0 mm 0.00 in0.0 mm 0.00 in0.0 mm
01:10 PM 21.0°F-6.1°C 16.7°F-8.5°C 83% 4.9 mph N7.9 kmh N 12.8 mph20.6 kmh 30.16 in1021.3 mb 0.00 in0.0 mm 0.00 in0.0 mm 0.00 in0.0 mm
01:05 PM 21.0°F-6.1°C 16.7°F-8.5°C 83% 8.1 mph NE13.0 kmh NE 12.8 mph20.6 kmh 30.16 in1021.3 mb 0.00 in0.0 mm 0.00 in0.0 mm 0.00 in0.0 mm
01:00 PM 20.7°F-6.3°C 16.5°F-8.6°C 84% 6.7 mph N10.8 kmh N 11.6 mph18.7 kmh 30.16 in1021.3 mb 0.00 in0.0 mm 0.00 in0.0 mm 0.00 in0.0 mm
12:55 PM 20.5°F-6.4°C 16.3°F-8.7°C 84% 6.3 mph N10.1 kmh N 11.6 mph18.7 kmh 30.16 in1021.3 mb 0.00 in0.0 mm 0.00 in0.0 mm 0.00 in0.0 mm
12:50 PM 20.5°F-6.4°C 16.3°F-8.7°C 84% 4.9 mph NNE7.9 kmh NNE 13.9 mph22.4 kmh 30.16 in1021.3 mb 0.00 in0.0 mm 0.00 in0.0 mm 0.00 in0.0 mm
12:45 PM 20.3°F-6.5°C 16.2°F-8.8°C 84% 4.7 mph NNE7.6 kmh NNE 12.8 mph20.6 kmh 30.15 in1021.0 mb 0.00 in0.0 mm 0.00 in0.0 mm 0.00 in0.0 mm
12:40 PM 20.5°F-6.4°C 16.3°F-8.7°C 84% 5.1 mph N8.2 kmh N 11.6 mph18.7 kmh 30.15 in1021.0 mb 0.00 in0.0 mm 0.00 in0.0 mm 0.00 in0.0 mm
12:35 PM 20.5°F-6.4°C 16.3°F-8.7°C 84% 6.9 mph NNE11.1 kmh NNE 12.8 mph20.6 kmh 30.15 in1021.0 mb 0.00 in0.0 mm 0.00 in0.0 mm 0.00 in0.0 mm
12:30 PM 20.3°F-6.5°C 16.5°F-8.6°C 85% 5.8 mph ENE9.3 kmh ENE 10.5 mph16.9 kmh 30.15 in1021.0 mb 0.00 in0.0 mm 0.00 in0.0 mm 0.00 in0.0 mm
12:25 PM 19.9°F-6.7°C 16.2°F-8.8°C 85% 5.6 mph N9.0 kmh N 18.1 mph29.1 kmh 30.15 in1021.0 mb 0.00 in0.0 mm 0.00 in0.0 mm 0.00 in0.0 mm
12:20 PM 19.6°F-6.9°C 16.2°F-8.8°C 86% 5.8 mph NE9.3 kmh NE 11.6 mph18.7 kmh 30.15 in1021.0 mb 0.00 in0.0 mm 0.00 in0.0 mm 0.00 in0.0 mm
12:15 PM 19.2°F-7.1°C 15.4°F-9.2°C 85% 7.6 mph N12.2 kmh N 14.8 mph23.8 kmh 30.14 in1020.7 mb 0.00 in0.0 mm 0.00 in0.0 mm 0.00 in0.0 mm
12:10 PM 19.6°F-6.9°C 16.2°F-8.8°C 86% 6.9 mph 11.1 kmh 17.0 mph27.4 kmh 30.14 in1020.7 mb 0.00 in0.0 mm 0.00 in0.0 mm 0.00 in0.0 mm
12:05 PM 19.2°F-7.1°C 15.4°F-9.2°C 85% 8.3 mph N13.4 kmh N 15.9 mph25.6 kmh 30.14 in1020.7 mb 0.00 in0.0 mm 0.00 in0.0 mm 0.00 in0.0 mm
12:00 PM 19.4°F-7.0°C 16.0°F-8.9°C 86% 6.7 mph NNE10.8 kmh NNE 15.9 mph25.6 kmh 30.14 in1020.7 mb 0.00 in0.0 mm 0.00 in0.0 mm 0.00 in0.0 mm
11:55 AM 19.0°F-7.2°C 15.6°F-9.1°C 86% 6.0 mph E9.7 kmh E 15.9 mph25.6 kmh 30.14 in1020.7 mb 0.00 in0.0 mm 0.00 in0.0 mm 0.00 in0.0 mm
11:50 AM 19.0°F-7.2°C 15.6°F-9.1°C 86% 8.1 mph NNE13.0 kmh NNE 15.9 mph25.6 kmh 30.14 in1020.7 mb 0.00 in0.0 mm 0.00 in0.0 mm 0.00 in0.0 mm
11:45 AM 19.0°F-7.2°C 15.6°F-9.1°C 86% 8.5 mph NE13.7 kmh NE 15.9 mph25.6 kmh 30.13 in1020.3 mb 0.00 in0.0 mm 0.00 in0.0 mm 0.00 in0.0 mm
11:40 AM 19.0°F-7.2°C 15.6°F-9.1°C 86% 8.5 mph NE13.7 kmh NE 14.8 mph23.8 kmh 30.14 in1020.7 mb 0.00 in0.0 mm 0.00 in0.0 mm 0.00 in0.0 mm
11:35 AM 19.0°F-7.2°C 15.6°F-9.1°C 86% 6.0 mph NE9.7 kmh NE 13.9 mph22.4 kmh 30.14 in1020.7 mb 0.00 in0.0 mm 0.00 in0.0 mm 0.00 in0.0 mm
11:30 AM 19.0°F-7.2°C 15.8°F-9.0°C 87% 4.5 mph N7.2 kmh N 13.9 mph22.4 kmh 30.14 in1020.7 mb 0.00 in0.0 mm 0.00 in0.0 mm 0.00 in0.0 mm
11:25 AM 18.7°F-7.4°C 15.3°F-9.3°C 86% 7.4 mph ENE11.9 kmh ENE 19.0 mph30.6 kmh 30.13 in1020.3 mb 0.00 in0.0 mm 0.00 in0.0 mm 0.00 in0.0 mm
11:20 AM 18.3°F-7.6°C 14.9°F-9.5°C 86% 8.1 mph NE13.0 kmh NE 15.9 mph25.6 kmh 30.13 in1020.3 mb 0.00 in0.0 mm 0.00 in0.0 mm 0.00 in0.0 mm
11:15 AM 18.3°F-7.6°C 14.9°F-9.5°C 86% 9.4 mph N15.1 kmh N 15.9 mph25.6 kmh 30.13 in1020.3 mb 0.00 in0.0 mm 0.00 in0.0 mm 0.00 in0.0 mm
11:10 AM 18.1°F-7.7°C 14.7°F-9.6°C 86% 8.7 mph NE14.0 kmh NE 17.0 mph27.4 kmh 30.12 in1020.0 mb 0.00 in0.0 mm 0.00 in0.0 mm 0.00 in0.0 mm
11:05 AM 18.3°F-7.6°C 15.1°F-9.4°C 87% 9.4 mph N15.1 kmh N 14.8 mph23.8 kmh 30.11 in1019.6 mb 0.00 in0.0 mm 0.00 in0.0 mm 0.00 in0.0 mm
11:00 AM 18.3°F-7.6°C 15.1°F-9.4°C 87% 8.1 mph NNE13.0 kmh NNE 14.8 mph23.8 kmh 30.11 in1019.6 mb 0.00 in0.0 mm 0.00 in0.0 mm 0.00 in0.0 mm
10:55 AM 18.1°F-7.7°C 14.9°F-9.5°C 87% 7.2 mph N11.6 kmh N 17.0 mph27.4 kmh 30.11 in1019.6 mb 0.00 in0.0 mm 0.00 in0.0 mm 0.00 in0.0 mm
10:50 AM 17.8°F-7.9°C 14.5°F-9.7°C 87% 10.7 mph NE17.2 kmh NE 20.1 mph32.3 kmh 30.10 in1019.3 mb 0.00 in0.0 mm 0.00 in0.0 mm 0.00 in0.0 mm
10:45 AM 17.8°F-7.9°C 14.5°F-9.7°C 87% 10.3 mph NNE16.6 kmh NNE 19.0 mph30.6 kmh 30.10 in1019.3 mb 0.00 in0.0 mm 0.00 in0.0 mm 0.00 in0.0 mm
10:40 AM 17.4°F-8.1°C 14.2°F-9.9°C 87% 8.3 mph N13.4 kmh N 14.8 mph23.8 kmh 30.09 in1019.0 mb 0.00 in0.0 mm 0.00 in0.0 mm 0.00 in0.0 mm
10:35 AM 17.6°F-8.0°C 14.4°F-9.8°C 87% 8.5 mph NW13.7 kmh NW 20.1 mph32.3 kmh 30.09 in1019.0 mb 0.00 in0.0 mm 0.00 in0.0 mm 0.00 in0.0 mm
10:30 AM 17.6°F-8.0°C 14.4°F-9.8°C 87% 10.1 mph NE16.3 kmh NE 17.0 mph27.4 kmh 30.08 in1018.6 mb 0.00 in0.0 mm 0.00 in0.0 mm 0.00 in0.0 mm
10:25 AM 17.8°F-7.9°C 14.9°F-9.5°C 88% 9.2 mph N14.8 kmh N 18.1 mph29.1 kmh 30.08 in1018.6 mb 0.00 in0.0 mm 0.00 in0.0 mm 0.00 in0.0 mm
10:20 AM 17.2°F-8.2°C 14.0°F-10.0°C 87% 7.2 mph ENE11.6 kmh ENE 19.0 mph30.6 kmh 30.08 in1018.6 mb 0.00 in0.0 mm 0.00 in0.0 mm 0.00 in0.0 mm
10:15 AM 17.2°F-8.2°C 14.4°F-9.8°C 88% 8.5 mph N13.7 kmh N 18.1 mph29.1 kmh 30.07 in1018.3 mb 0.00 in0.0 mm 0.00 in0.0 mm 0.00 in0.0 mm
10:10 AM 17.1°F-8.3°C 14.2°F-9.9°C 88% 7.2 mph N11.6 kmh N 18.1 mph29.1 kmh 30.07 in1018.3 mb 0.00 in0.0 mm 0.00 in0.0 mm 0.00 in0.0 mm
10:05 AM 17.1°F-8.3°C 14.2°F-9.9°C 88% 8.9 mph NNE14.3 kmh NNE 14.8 mph23.8 kmh 30.07 in1018.3 mb 0.00 in0.0 mm 0.00 in0.0 mm 0.00 in0.0 mm
10:00 AM 16.9°F-8.4°C 13.6°F-10.2°C 87% 8.1 mph NNE13.0 kmh NNE 18.1 mph29.1 kmh 30.06 in1017.9 mb 0.00 in0.0 mm 0.00 in0.0 mm 0.00 in0.0 mm
09:55 AM 16.9°F-8.4°C 14.0°F-10.0°C 88% 6.7 mph N10.8 kmh N 15.9 mph25.6 kmh 30.06 in1017.9 mb 0.00 in0.0 mm 0.00 in0.0 mm 0.00 in0.0 mm
09:50 AM 17.1°F-8.3°C 14.2°F-9.9°C 88% 9.4 mph NNW15.1 kmh NNW 15.9 mph25.6 kmh 30.06 in1017.9 mb 0.00 in0.0 mm 0.00 in0.0 mm 0.00 in0.0 mm
09:45 AM 16.9°F-8.4°C 14.0°F-10.0°C 88% 8.5 mph 13.7 kmh 17.0 mph27.4 kmh 30.06 in1017.9 mb 0.00 in0.0 mm 0.00 in0.0 mm 0.00 in0.0 mm
09:40 AM 16.7°F-8.5°C 13.8°F-10.1°C 88% 9.4 mph NE15.1 kmh NE 18.1 mph29.1 kmh 30.05 in1017.6 mb 0.00 in0.0 mm 0.00 in0.0 mm 0.00 in0.0 mm
09:35 AM 16.7°F-8.5°C 13.8°F-10.1°C 88% 6.0 mph N9.7 kmh N 20.1 mph32.3 kmh 30.05 in1017.6 mb 0.00 in0.0 mm 0.00 in0.0 mm 0.00 in0.0 mm
09:30 AM 16.5°F-8.6°C 13.6°F-10.2°C 88% 9.2 mph NNE14.8 kmh NNE 19.0 mph30.6 kmh 30.05 in1017.6 mb 0.00 in0.0 mm 0.00 in0.0 mm 0.00 in0.0 mm
09:25 AM 16.3°F-8.7°C 13.1°F-10.5°C 87% 9.2 mph N14.8 kmh N 15.9 mph25.6 kmh 30.04 in1017.3 mb 0.00 in0.0 mm 0.00 in0.0 mm 0.00 in0.0 mm
09:20 AM 16.3°F-8.7°C 13.5°F-10.3°C 88% 9.6 mph NE15.4 kmh NE 13.9 mph22.4 kmh 30.04 in1017.3 mb 0.00 in0.0 mm 0.00 in0.0 mm 0.00 in0.0 mm
09:15 AM 16.3°F-8.7°C 13.5°F-10.3°C 88% 5.8 mph N9.3 kmh N 18.1 mph29.1 kmh 30.03 in1016.9 mb 0.00 in0.0 mm 0.00 in0.0 mm 0.00 in0.0 mm
09:10 AM 16.3°F-8.7°C 13.5°F-10.3°C 88% 7.4 mph NE11.9 kmh NE 14.8 mph23.8 kmh 30.03 in1016.9 mb 0.00 in0.0 mm 0.00 in0.0 mm 0.00 in0.0 mm
09:05 AM 16.2°F-8.8°C 12.9°F-10.6°C 87% 6.7 mph N10.8 kmh N 14.8 mph23.8 kmh 30.03 in1016.9 mb 0.00 in0.0 mm 0.00 in0.0 mm 0.00 in0.0 mm
09:00 AM 16.2°F-8.8°C 13.3°F-10.4°C 88% 8.5 mph NW13.7 kmh NW 15.9 mph25.6 kmh 30.03 in1016.9 mb 0.00 in0.0 mm 0.00 in0.0 mm 0.00 in0.0 mm
08:55 AM 16.2°F-8.8°C 13.3°F-10.4°C 88% 6.3 mph NW10.1 kmh NW 13.9 mph22.4 kmh 30.02 in1016.6 mb 0.00 in0.0 mm 0.00 in0.0 mm 0.00 in0.0 mm
08:50 AM 16.0°F-8.9°C 13.1°F-10.5°C 88% 6.0 mph NNW9.7 kmh NNW 13.9 mph22.4 kmh 30.01 in1016.3 mb 0.00 in0.0 mm 0.00 in0.0 mm 0.00 in0.0 mm
08:45 AM 16.0°F-8.9°C 13.1°F-10.5°C 88% 5.1 mph N8.2 kmh N 11.6 mph18.7 kmh 30.01 in1016.3 mb 0.00 in0.0 mm 0.00 in0.0 mm 0.00 in0.0 mm
08:40 AM 16.0°F-8.9°C 13.1°F-10.5°C 88% 6.0 mph NNE9.7 kmh NNE 11.6 mph18.7 kmh 30.01 in1016.3 mb 0.00 in0.0 mm 0.00 in0.0 mm 0.00 in0.0 mm
08:35 AM 16.0°F-8.9°C 13.1°F-10.5°C 88% 4.7 mph N7.6 kmh N 14.8 mph23.8 kmh 30.00 in1015.9 mb 0.00 in0.0 mm 0.00 in0.0 mm 0.00 in0.0 mm
08:30 AM 16.0°F-8.9°C 13.1°F-10.5°C 88% 5.6 mph NNW9.0 kmh NNW 15.9 mph25.6 kmh 30.00 in1015.9 mb 0.00 in0.0 mm 0.00 in0.0 mm 0.00 in0.0 mm
08:25 AM 16.0°F-8.9°C 13.1°F-10.5°C 88% 7.2 mph NNE11.6 kmh NNE 12.8 mph20.6 kmh 29.99 in1015.6 mb 0.00 in0.0 mm 0.00 in0.0 mm 0.00 in0.0 mm
08:20 AM 16.0°F-8.9°C 13.1°F-10.5°C 88% 7.2 mph N11.6 kmh N 14.8 mph23.8 kmh 29.99 in1015.6 mb 0.00 in0.0 mm 0.00 in0.0 mm 0.00 in0.0 mm
08:15 AM 16.0°F-8.9°C 13.1°F-10.5°C 88% 3.6 mph NE5.8 kmh NE 10.5 mph16.9 kmh 29.98 in1015.2 mb 0.00 in0.0 mm 0.00 in0.0 mm 0.00 in0.0 mm
08:10 AM 16.0°F-8.9°C 13.1°F-10.5°C 88% 5.4 mph 8.7 kmh 12.8 mph20.6 kmh 29.98 in1015.2 mb 0.00 in0.0 mm 0.00 in0.0 mm 0.00 in0.0 mm
08:05 AM 16.0°F-8.9°C 13.1°F-10.5°C 88% 5.4 mph N8.7 kmh N 18.1 mph29.1 kmh 29.98 in1015.2 mb 0.00 in0.0 mm 0.00 in0.0 mm 0.00 in0.0 mm
08:00 AM 16.0°F-8.9°C 13.1°F-10.5°C 88% 6.7 mph NNE10.8 kmh NNE 13.9 mph22.4 kmh 29.98 in1015.2 mb 0.00 in0.0 mm 0.00 in0.0 mm 0.00 in0.0 mm
07:55 AM 16.0°F-8.9°C 13.1°F-10.5°C 88% 4.0 mph NNW6.4 kmh NNW 14.8 mph23.8 kmh 29.97 in1014.9 mb 0.00 in0.0 mm 0.00 in0.0 mm 0.00 in0.0 mm
07:50 AM 16.0°F-8.9°C 13.1°F-10.5°C 88% 6.5 mph N10.5 kmh N 18.1 mph29.1 kmh 29.97 in1014.9 mb 0.00 in0.0 mm 0.00 in0.0 mm 0.00 in0.0 mm
07:45 AM 16.2°F-8.8°C 13.5°F-10.3°C 89% 5.1 mph NNE8.2 kmh NNE 18.1 mph29.1 kmh 29.96 in1014.6 mb 0.00 in0.0 mm 0.00 in0.0 mm 0.00 in0.0 mm
07:40 AM 16.2°F-8.8°C 13.5°F-10.3°C 89% 6.7 mph NNW10.8 kmh NNW 13.9 mph22.4 kmh 29.96 in1014.6 mb 0.00 in0.0 mm 0.00 in0.0 mm 0.00 in0.0 mm
07:35 AM 16.2°F-8.8°C 13.5°F-10.3°C 89% 4.7 mph N7.6 kmh N 17.0 mph27.4 kmh 29.96 in1014.6 mb 0.00 in0.0 mm 0.00 in0.0 mm 0.00 in0.0 mm
07:30 AM 16.2°F-8.8°C 13.5°F-10.3°C 89% 7.6 mph N12.2 kmh N 17.0 mph27.4 kmh 29.95 in1014.2 mb 0.00 in0.0 mm 0.00 in0.0 mm 0.00 in0.0 mm
07:25 AM 16.0°F-8.9°C 13.3°F-10.4°C 89% 5.8 mph NNE9.3 kmh NNE 13.9 mph22.4 kmh 29.95 in1014.2 mb 0.00 in0.0 mm 0.00 in0.0 mm 0.00 in0.0 mm
07:20 AM 16.0°F-8.9°C 13.3°F-10.4°C 89% 6.7 mph NE10.8 kmh NE 10.5 mph16.9 kmh 29.94 in1013.9 mb 0.00 in0.0 mm 0.00 in0.0 mm 0.00 in0.0 mm
07:15 AM 16.0°F-8.9°C 13.3°F-10.4°C 89% 7.6 mph NNE12.2 kmh NNE 13.9 mph22.4 kmh 29.94 in1013.9 mb 0.00 in0.0 mm 0.00 in0.0 mm 0.00 in0.0 mm
07:10 AM 16.0°F-8.9°C 13.3°F-10.4°C 89% 5.6 mph NW9.0 kmh NW 11.6 mph18.7 kmh 29.93 in1013.5 mb 0.00 in0.0 mm 0.00 in0.0 mm 0.00 in0.0 mm
07:05 AM 16.0°F-8.9°C 13.3°F-10.4°C 89% 6.0 mph E9.7 kmh E 14.8 mph23.8 kmh 29.93 in1013.5 mb 0.00 in0.0 mm 0.00 in0.0 mm 0.00 in0.0 mm
07:00 AM 16.2°F-8.8°C 13.8°F-10.1°C 90% 7.4 mph N11.9 kmh N 15.9 mph25.6 kmh 29.93 in1013.5 mb 0.00 in0.0 mm 0.00 in0.0 mm 0.00 in0.0 mm
06:55 AM 16.3°F-8.7°C 14.0°F-10.0°C 90% 6.5 mph N10.5 kmh N 13.9 mph22.4 kmh 29.92 in1013.2 mb 0.00 in0.0 mm 0.00 in0.0 mm 0.00 in0.0 mm
06:50 AM 16.2°F-8.8°C 13.8°F-10.1°C 90% 6.3 mph NE10.1 kmh NE 14.8 mph23.8 kmh 29.92 in1013.2 mb 0.00 in0.0 mm 0.00 in0.0 mm 0.00 in0.0 mm
06:45 AM 16.2°F-8.8°C 13.8°F-10.1°C 90% 6.0 mph NNE9.7 kmh NNE 17.0 mph27.4 kmh 29.91 in1012.9 mb 0.00 in0.0 mm 0.00 in0.0 mm 0.00 in0.0 mm
06:40 AM 16.2°F-8.8°C 13.8°F-10.1°C 90% 6.7 mph NE10.8 kmh NE 17.0 mph27.4 kmh 29.91 in1012.9 mb 0.00 in0.0 mm 0.00 in0.0 mm 0.00 in0.0 mm
06:35 AM 16.3°F-8.7°C 14.0°F-10.0°C 90% 5.6 mph NNE9.0 kmh NNE 13.9 mph22.4 kmh 29.91 in1012.9 mb 0.00 in0.0 mm 0.00 in0.0 mm 0.00 in0.0 mm
06:30 AM 16.3°F-8.7°C 14.0°F-10.0°C 90% 6.5 mph N10.5 kmh N 14.8 mph23.8 kmh 29.90 in1012.5 mb 0.00 in0.0 mm 0.00 in0.0 mm 0.00 in0.0 mm
06:25 AM 16.3°F-8.7°C 14.0°F-10.0°C 90% 5.4 mph NNE8.7 kmh NNE 12.8 mph20.6 kmh 29.89 in1012.2 mb 0.00 in0.0 mm 0.00 in0.0 mm 0.00 in0.0 mm
06:20 AM 16.3°F-8.7°C 14.0°F-10.0°C 90% 7.2 mph NNE11.6 kmh NNE 12.8 mph20.6 kmh 29.89 in1012.2 mb 0.00 in0.0 mm 0.00 in0.0 mm 0.00 in0.0 mm
06:15 AM 16.5°F-8.6°C 14.4°F-9.8°C 91% 5.6 mph NW9.0 kmh NW 12.8 mph20.6 kmh 29.88 in1011.9 mb 0.00 in0.0 mm 0.00 in0.0 mm 0.00 in0.0 mm
06:10 AM 16.5°F-8.6°C 14.4°F-9.8°C 91% 6.0 mph N9.7 kmh N 13.9 mph22.4 kmh 29.88 in1011.9 mb 0.00 in0.0 mm 0.00 in0.0 mm 0.00 in0.0 mm
06:05 AM 16.7°F-8.5°C 14.5°F-9.7°C 91% 4.3 mph NNE6.9 kmh NNE 10.5 mph16.9 kmh 29.88 in1011.9 mb 0.00 in0.0 mm 0.00 in0.0 mm 0.00 in0.0 mm
06:00 AM 16.7°F-8.5°C 14.5°F-9.7°C 91% 4.9 mph N7.9 kmh N 13.9 mph22.4 kmh 29.87 in1011.5 mb 0.00 in0.0 mm 0.00 in0.0 mm 0.00 in0.0 mm
05:55 AM 16.7°F-8.5°C 14.4°F-9.8°C 90% 6.9 mph N11.1 kmh N 14.8 mph23.8 kmh 29.87 in1011.5 mb 0.00 in0.0 mm 0.00 in0.0 mm 0.00 in0.0 mm
05:50 AM 17.1°F-8.3°C 14.9°F-9.5°C 91% 5.6 mph NNE9.0 kmh NNE 12.8 mph20.6 kmh 29.86 in1011.2 mb 0.00 in0.0 mm 0.00 in0.0 mm 0.00 in0.0 mm
05:45 AM 17.1°F-8.3°C 14.9°F-9.5°C 91% 5.8 mph NNE9.3 kmh NNE 11.6 mph18.7 kmh 29.86 in1011.2 mb 0.00 in0.0 mm 0.00 in0.0 mm 0.00 in0.0 mm
05:40 AM 17.1°F-8.3°C 14.9°F-9.5°C 91% 4.0 mph NE6.4 kmh NE 9.6 mph15.4 kmh 29.85 in1010.8 mb 0.00 in0.0 mm 0.00 in0.0 mm 0.00 in0.0 mm
05:35 AM 17.2°F-8.2°C 14.9°F-9.5°C 90% 3.8 mph N6.1 kmh N 12.8 mph20.6 kmh 29.85 in1010.8 mb 0.00 in0.0 mm 0.00 in0.0 mm 0.00 in0.0 mm
05:30 AM 17.2°F-8.2°C 15.1°F-9.4°C 91% 3.4 mph NNE5.5 kmh NNE 9.6 mph15.4 kmh 29.85 in1010.8 mb 0.00 in0.0 mm 0.00 in0.0 mm 0.00 in0.0 mm
05:25 AM 17.4°F-8.1°C 15.3°F-9.3°C 91% 5.4 mph N8.7 kmh N 12.8 mph20.6 kmh 29.84 in1010.5 mb 0.00 in0.0 mm 0.00 in0.0 mm 0.00 in0.0 mm
05:20 AM 17.6°F-8.0°C 15.4°F-9.2°C 91% 6.5 mph NE10.5 kmh NE 11.6 mph18.7 kmh 29.83 in1010.2 mb 0.00 in0.0 mm 0.00 in0.0 mm 0.00 in0.0 mm
05:15 AM 17.6°F-8.0°C 15.4°F-9.2°C 91% 4.5 mph NE7.2 kmh NE 11.6 mph18.7 kmh 29.83 in1010.2 mb 0.00 in0.0 mm 0.00 in0.0 mm 0.00 in0.0 mm
05:10 AM 17.6°F-8.0°C 15.4°F-9.2°C 91% 4.9 mph N7.9 kmh N 12.8 mph20.6 kmh 29.83 in1010.2 mb 0.00 in0.0 mm 0.00 in0.0 mm 0.00 in0.0 mm
05:05 AM 17.8°F-7.9°C 15.6°F-9.1°C 91% 4.9 mph NE7.9 kmh NE 12.8 mph20.6 kmh 29.82 in1009.8 mb 0.00 in0.0 mm 0.00 in0.0 mm 0.00 in0.0 mm
05:00 AM 18.0°F-7.8°C 15.8°F-9.0°C 91% 4.3 mph NNE6.9 kmh NNE 11.6 mph18.7 kmh 29.82 in1009.8 mb 0.00 in0.0 mm 0.00 in0.0 mm 0.00 in0.0 mm
04:55 AM 18.0°F-7.8°C 15.8°F-9.0°C 91% 5.4 mph NNW8.7 kmh NNW 10.5 mph16.9 kmh 29.82 in1009.8 mb 0.00 in0.0 mm 0.00 in0.0 mm 0.00 in0.0 mm
04:50 AM 18.0°F-7.8°C 15.8°F-9.0°C 91% 6.3 mph NE10.1 kmh NE 12.8 mph20.6 kmh 29.81 in1009.5 mb 0.00 in0.0 mm 0.00 in0.0 mm 0.00 in0.0 mm
04:45 AM 18.0°F-7.8°C 15.8°F-9.0°C 91% 4.7 mph NNE7.6 kmh NNE 9.6 mph15.4 kmh 29.81 in1009.5 mb 0.00 in0.0 mm 0.00 in0.0 mm 0.00 in0.0 mm
04:40 AM 18.1°F-7.7°C 16.0°F-8.9°C 91% 3.8 mph NW6.1 kmh NW 12.8 mph20.6 kmh 29.80 in1009.1 mb 0.00 in0.0 mm 0.00 in0.0 mm 0.00 in0.0 mm
04:35 AM 18.3°F-7.6°C 16.2°F-8.8°C 91% 4.3 mph N6.9 kmh N 12.8 mph20.6 kmh 29.80 in1009.1 mb 0.00 in0.0 mm 0.00 in0.0 mm 0.00 in0.0 mm
04:30 AM 18.5°F-7.5°C 16.3°F-8.7°C 91% 5.6 mph NE9.0 kmh NE 9.6 mph15.4 kmh 29.80 in1009.1 mb 0.00 in0.0 mm 0.00 in0.0 mm 0.00 in0.0 mm
04:25 AM 18.3°F-7.6°C 16.2°F-8.8°C 91% 3.1 mph NNE5.0 kmh NNE 8.5 mph13.7 kmh 29.79 in1008.8 mb 0.00 in0.0 mm 0.00 in0.0 mm 0.00 in0.0 mm
04:20 AM 18.3°F-7.6°C 16.2°F-8.8°C 91% 2.9 mph NNE4.7 kmh NNE 7.4 mph11.9 kmh 29.78 in1008.5 mb 0.00 in0.0 mm 0.00 in0.0 mm 0.00 in0.0 mm
04:15 AM 18.7°F-7.4°C 16.5°F-8.6°C 91% 2.7 mph NNW4.3 kmh NNW 10.5 mph16.9 kmh 29.78 in1008.5 mb 0.00 in0.0 mm 0.00 in0.0 mm 0.00 in0.0 mm
04:10 AM 18.7°F-7.4°C 16.5°F-8.6°C 91% 3.1 mph NE5.0 kmh NE 11.6 mph18.7 kmh 29.77 in1008.1 mb 0.00 in0.0 mm 0.00 in0.0 mm 0.00 in0.0 mm
04:05 AM 18.7°F-7.4°C 16.5°F-8.6°C 91% 2.5 mph N4.0 kmh N 9.6 mph15.4 kmh 29.77 in1008.1 mb 0.00 in0.0 mm 0.00 in0.0 mm 0.00 in0.0 mm
04:00 AM 18.7°F-7.4°C 16.5°F-8.6°C 91% 4.0 mph NNW6.4 kmh NNW 9.6 mph15.4 kmh 29.77 in1008.1 mb 0.00 in0.0 mm 0.00 in0.0 mm 0.00 in0.0 mm
03:55 AM 18.9°F-7.3°C 16.7°F-8.5°C 91% 4.7 mph N7.6 kmh N 11.6 mph18.7 kmh 29.76 in1007.8 mb 0.00 in0.0 mm 0.00 in0.0 mm 0.00 in0.0 mm
03:50 AM 18.9°F-7.3°C 16.7°F-8.5°C 91% 2.9 mph 4.7 kmh 7.4 mph11.9 kmh 29.76 in1007.8 mb 0.00 in0.0 mm 0.00 in0.0 mm 0.00 in0.0 mm
03:45 AM 19.0°F-7.2°C 17.1°F-8.3°C 92% 3.1 mph NNW5.0 kmh NNW 9.6 mph15.4 kmh 29.76 in1007.8 mb 0.00 in0.0 mm 0.00 in0.0 mm 0.00 in0.0 mm
03:40 AM 19.0°F-7.2°C 17.1°F-8.3°C 92% 4.7 mph NNW7.6 kmh NNW 12.8 mph20.6 kmh 29.75 in1007.5 mb 0.00 in0.0 mm 0.00 in0.0 mm 0.00 in0.0 mm
03:35 AM 19.0°F-7.2°C 17.1°F-8.3°C 92% 3.4 mph N5.5 kmh N 8.5 mph13.7 kmh 29.75 in1007.5 mb 0.00 in0.0 mm 0.00 in0.0 mm 0.00 in0.0 mm
03:30 AM 19.2°F-7.1°C 17.2°F-8.2°C 92% 3.6 mph NNW5.8 kmh NNW 10.5 mph16.9 kmh 29.74 in1007.1 mb 0.00 in0.0 mm 0.00 in0.0 mm 0.00 in0.0 mm
03:25 AM 19.2°F-7.1°C 17.2°F-8.2°C 92% 5.1 mph NE8.2 kmh NE 9.6 mph15.4 kmh 29.75 in1007.5 mb 0.00 in0.0 mm 0.00 in0.0 mm 0.00 in0.0 mm
03:20 AM 19.4°F-7.0°C 17.4°F-8.1°C 92% 5.1 mph NW8.2 kmh NW 12.8 mph20.6 kmh 29.74 in1007.1 mb 0.00 in0.0 mm 0.00 in0.0 mm 0.00 in0.0 mm
03:15 AM 19.6°F-6.9°C 17.6°F-8.0°C 92% 3.8 mph N6.1 kmh N 9.6 mph15.4 kmh 29.74 in1007.1 mb 0.00 in0.0 mm 0.00 in0.0 mm 0.00 in0.0 mm
03:10 AM 19.6°F-6.9°C 17.6°F-8.0°C 92% 3.1 mph NNE5.0 kmh NNE 7.4 mph11.9 kmh 29.73 in1006.8 mb 0.00 in0.0 mm 0.00 in0.0 mm 0.00 in0.0 mm
03:05 AM 19.6°F-6.9°C 17.6°F-8.0°C 92% 3.6 mph NNW5.8 kmh NNW 9.6 mph15.4 kmh 29.73 in1006.8 mb 0.00 in0.0 mm 0.00 in0.0 mm 0.00 in0.0 mm
03:00 AM 19.6°F-6.9°C 17.6°F-8.0°C 92% 5.1 mph NNE8.2 kmh NNE 11.6 mph18.7 kmh 29.72 in1006.4 mb 0.00 in0.0 mm 0.00 in0.0 mm 0.00 in0.0 mm
02:55 AM 19.8°F-6.8°C 18.1°F-7.7°C 93% 3.1 mph N5.0 kmh N 9.6 mph15.4 kmh 29.72 in1006.4 mb 0.00 in0.0 mm 0.00 in0.0 mm 0.00 in0.0 mm
02:50 AM 19.8°F-6.8°C 18.1°F-7.7°C 93% 3.4 mph NE5.5 kmh NE 10.5 mph16.9 kmh 29.72 in1006.4 mb 0.00 in0.0 mm 0.00 in0.0 mm 0.00 in0.0 mm
02:45 AM 19.9°F-6.7°C 18.3°F-7.6°C 93% 6.0 mph NE9.7 kmh NE 13.9 mph22.4 kmh 29.72 in1006.4 mb 0.00 in0.0 mm 0.00 in0.0 mm 0.00 in0.0 mm
02:40 AM 19.9°F-6.7°C 18.3°F-7.6°C 93% 4.0 mph N6.4 kmh N 12.8 mph20.6 kmh 29.72 in1006.4 mb 0.00 in0.0 mm 0.00 in0.0 mm 0.00 in0.0 mm
02:35 AM 19.9°F-6.7°C 18.0°F-7.8°C 92% 4.7 mph N7.6 kmh N 10.5 mph16.9 kmh 29.71 in1006.1 mb 0.00 in0.0 mm 0.00 in0.0 mm 0.00 in0.0 mm
02:30 AM 19.9°F-6.7°C 18.3°F-7.6°C 93% 4.0 mph N6.4 kmh N 9.6 mph15.4 kmh 29.71 in1006.1 mb 0.00 in0.0 mm 0.00 in0.0 mm 0.00 in0.0 mm
02:25 AM 20.1°F-6.6°C 18.1°F-7.7°C 92% 3.8 mph NNE6.1 kmh NNE 11.6 mph18.7 kmh 29.70 in1005.8 mb 0.00 in0.0 mm 0.00 in0.0 mm 0.00 in0.0 mm
02:20 AM 20.1°F-6.6°C 18.5°F-7.5°C 93% 3.8 mph N6.1 kmh N 9.6 mph15.4 kmh 29.70 in1005.8 mb 0.00 in0.0 mm 0.00 in0.0 mm 0.00 in0.0 mm
02:15 AM 20.5°F-6.4°C 18.9°F-7.3°C 93% 4.5 mph N7.2 kmh N 9.6 mph15.4 kmh 29.70 in1005.8 mb 0.00 in0.0 mm 0.00 in0.0 mm 0.00 in0.0 mm
02:10 AM 20.7°F-6.3°C 19.0°F-7.2°C 93% 2.9 mph N4.7 kmh N 8.5 mph13.7 kmh 29.70 in1005.8 mb 0.00 in0.0 mm 0.00 in0.0 mm 0.00 in0.0 mm
02:05 AM 20.8°F-6.2°C 19.2°F-7.1°C 93% 4.5 mph NNE7.2 kmh NNE 9.6 mph15.4 kmh 29.69 in1005.4 mb 0.00 in0.0 mm 0.00 in0.0 mm 0.00 in0.0 mm
02:00 AM 20.8°F-6.2°C 19.2°F-7.1°C 93% 4.3 mph N6.9 kmh N 12.8 mph20.6 kmh 29.69 in1005.4 mb 0.00 in0.0 mm 0.00 in0.0 mm 0.00 in0.0 mm
01:55 AM 21.0°F-6.1°C 19.4°F-7.0°C 93% 4.5 mph NW7.2 kmh NW 7.4 mph11.9 kmh 29.68 in1005.1 mb 0.00 in0.0 mm 0.00 in0.0 mm 0.00 in0.0 mm
01:50 AM 21.0°F-6.1°C 19.4°F-7.0°C 93% 4.0 mph NW6.4 kmh NW 7.4 mph11.9 kmh 29.68 in1005.1 mb 0.00 in0.0 mm 0.00 in0.0 mm 0.00 in0.0 mm
01:45 AM 21.0°F-6.1°C 19.4°F-7.0°C 93% 3.1 mph N5.0 kmh N 6.3 mph10.1 kmh 29.67 in1004.7 mb 0.00 in0.0 mm 0.00 in0.0 mm 0.00 in0.0 mm
01:40 AM 21.4°F-5.9°C 19.8°F-6.8°C 93% 4.7 mph NNW7.6 kmh NNW 8.5 mph13.7 kmh 29.67 in1004.7 mb 0.00 in0.0 mm 0.00 in0.0 mm 0.00 in0.0 mm
01:35 AM 21.6°F-5.8°C 19.9°F-6.7°C 93% 3.1 mph NNE5.0 kmh NNE 10.5 mph16.9 kmh 29.67 in1004.7 mb 0.00 in0.0 mm 0.00 in0.0 mm 0.00 in0.0 mm
01:30 AM 21.6°F-5.8°C 19.9°F-6.7°C 93% 3.4 mph N5.5 kmh N 10.5 mph16.9 kmh 29.67 in1004.7 mb 0.00 in0.0 mm 0.00 in0.0 mm 0.00 in0.0 mm
01:25 AM 21.7°F-5.7°C 20.1°F-6.6°C 93% 3.1 mph NNE5.0 kmh NNE 7.4 mph11.9 kmh 29.67 in1004.7 mb 0.00 in0.0 mm 0.00 in0.0 mm 0.00 in0.0 mm
01:20 AM 21.7°F-5.7°C 20.1°F-6.6°C 93% 2.5 mph N4.0 kmh N 7.4 mph11.9 kmh 29.66 in1004.4 mb 0.00 in0.0 mm 0.00 in0.0 mm 0.00 in0.0 mm
01:15 AM 21.9°F-5.6°C 20.1°F-6.6°C 93% 2.0 mph NNW3.2 kmh NNW 7.4 mph11.9 kmh 29.66 in1004.4 mb 0.00 in0.0 mm 0.00 in0.0 mm 0.00 in0.0 mm
01:09 AM 21.9°F-5.6°C 20.1°F-6.6°C 93% 3.1 mph N5.0 kmh N 8.5 mph13.7 kmh 29.66 in1004.4 mb 0.00 in0.0 mm 0.00 in0.0 mm 0.00 in0.0 mm
01:04 AM 21.9°F-5.6°C 20.1°F-6.6°C 93% 2.5 mph 4.0 kmh 6.3 mph10.1 kmh 29.66 in1004.4 mb 0.00 in0.0 mm 0.00 in0.0 mm 0.00 in0.0 mm
12:59 AM 21.9°F-5.6°C 20.1°F-6.6°C 93% 2.7 mph N4.3 kmh N 5.4 mph8.7 kmh 29.65 in1004.1 mb 0.00 in0.0 mm 0.00 in0.0 mm 0.00 in0.0 mm
12:54 AM 21.9°F-5.6°C 20.1°F-6.6°C 93% 2.7 mph NNW4.3 kmh NNW 6.3 mph10.1 kmh 29.65 in1004.1 mb 0.00 in0.0 mm 0.00 in0.0 mm 0.00 in0.0 mm
12:49 AM 21.9°F-5.6°C 20.1°F-6.6°C 93% 3.4 mph N5.5 kmh N 6.3 mph10.1 kmh 29.65 in1004.1 mb 0.00 in0.0 mm 0.00 in0.0 mm 0.00 in0.0 mm
12:44 AM 22.1°F-5.5°C 20.3°F-6.5°C 93% 2.9 mph NE4.7 kmh NE 6.3 mph10.1 kmh 29.65 in1004.1 mb 0.00 in0.0 mm 0.00 in0.0 mm 0.00 in0.0 mm
12:39 AM 22.1°F-5.5°C 20.3°F-6.5°C 93% 3.4 mph N5.5 kmh N 7.4 mph11.9 kmh 29.64 in1003.7 mb 0.00 in0.0 mm 0.00 in0.0 mm 0.00 in0.0 mm
12:34 AM 22.1°F-5.5°C 20.3°F-6.5°C 93% 2.9 mph NNE4.7 kmh NNE 9.6 mph15.4 kmh 29.64 in1003.7 mb 0.00 in0.0 mm 0.00 in0.0 mm 0.00 in0.0 mm
12:29 AM 22.3°F-5.4°C 20.5°F-6.4°C 93% 4.5 mph NNE7.2 kmh NNE 9.6 mph15.4 kmh 29.64 in1003.7 mb 0.00 in0.0 mm 0.00 in0.0 mm 0.00 in0.0 mm
12:24 AM 22.5°F-5.3°C 20.7°F-6.3°C 93% 2.7 mph N4.3 kmh N 6.3 mph10.1 kmh 29.64 in1003.7 mb 0.00 in0.0 mm 0.00 in0.0 mm 0.00 in0.0 mm
12:19 AM 22.5°F-5.3°C 20.7°F-6.3°C 93% 4.3 mph NW6.9 kmh NW 8.5 mph13.7 kmh 29.64 in1003.7 mb 0.00 in0.0 mm 0.00 in0.0 mm 0.00 in0.0 mm
12:14 AM 22.6°F-5.2°C 20.8°F-6.2°C 93% 2.0 mph NNW3.2 kmh NNW 6.3 mph10.1 kmh 29.63 in1003.4 mb 0.00 in0.0 mm 0.00 in0.0 mm 0.00 in0.0 mm
12:09 AM 22.6°F-5.2°C 21.2°F-6.0°C 94% 1.6 mph NNE2.6 kmh NNE 5.4 mph8.7 kmh 29.63 in1003.4 mb 0.00 in0.0 mm 0.00 in0.0 mm 0.00 in0.0 mm
12:04 AM 22.8°F-5.1°C 21.4°F-5.9°C 94% 2.7 mph NNW4.3 kmh NNW 7.4 mph11.9 kmh 29.62 in1003.0 mb 0.00 in0.0 mm 0.00 in0.0 mm 0.00 in0.0 mm